Terminal Aerodrome Forecast
Issued by NWS

Home | Current Version | Previous Version | Text Only | Print | Product List | Glossary On
Versions: 1 2 3 4 5 6 7 8 9 10 11 12 13 14 15 16 17 18 19 20 21 22 23 24 25 26 27
000
FTUS44 KMOB 011700 RRA
TAFBFM
TAF
KBFM 011753Z 0118/0218 17007KT 5SM -RA BR FEW024 OVC045
     FM012100 21012KT 5SM BR BKN050
     FM012300 20009KT 3SM SHRA BKN035 BKN050
     FM020600 27009KT 4SM BR OVC007=

USA.gov is the U.S. government's official web portal to all federal, state and local government web resources and services.